Time;durP1;ratioP1;P1;durP2;ratioP2;P2;SDS_P1;SDS_P2;PMS_P1;PMS_P2;Temp;Humidity;BMP_temperature;BMP_pressure;BME280_temperature;BME280_humidity;BME280_pressure;Samples;Min_cycle;Max_cycle;Signal;HPM_P1;HPM_P2
2021/01/25 00:01:12;;;;;;;0.50;0.50;;;0.50;99.90;;;;;;5070392;28;20295;-88
2021/01/25 00:03:54;;;;;;;0.50;0.50;;;0.70;99.90;;;;;;5070997;28;20199;-89
2021/01/25 00:06:46;;;;;;;0.50;0.50;;;0.70;99.90;;;;;;5070405;28;20203;-89
2021/01/25 00:09:23;;;;;;;0.50;0.50;;;0.70;99.90;;;;;;5070283;28;20204;-88
2021/01/25 00:11:54;;;;;;;0.50;0.50;;;;;;;;;;5070131;28;20440;-89
2021/01/25 00:14:22;;;;;;;0.50;0.50;;;0.60;99.90;;;;;;5069511;28;20283;-88
2021/01/25 00:16:48;;;;;;;0.50;0.50;;;1.10;99.90;;;;;;5070023;28;20206;-88
2021/01/25 00:19:23;;;;;;;0.50;0.50;;;0.80;99.90;;;;;;5070278;28;20668;-89
2021/01/25 00:21:53;;;;;;;0.50;0.50;;;;;;;;;;5070533;28;20202;-89
2021/01/25 00:24:37;;;;;;;0.50;0.50;;;0.70;99.90;;;;;;5069095;28;20210;-89
2021/01/25 00:27:19;;;;;;;0.47;0.47;;;2.50;99.90;;;;;;5070329;28;20215;-89
2021/01/25 00:30:30;;;;;;;0.50;0.50;;;0.70;99.90;;;;;;5069213;28;20287;-88
2021/01/25 00:42:22;;;;;;;;;;;;;;;;;;;;;
2021/01/25 00:45:21;;;;;;;0.47;0.47;;;0.70;99.90;;;;;;5069753;28;20203;-88
2021/01/25 00:48:23;;;;;;;0.40;0.40;;;0.60;99.90;;;;;;5069536;28;20203;-88
2021/01/25 00:51:16;;;;;;;0.50;0.50;;;0.70;99.90;;;;;;5069892;28;20217;-89
2021/01/25 00:56:34;;;;;;;0.50;0.50;;;0.70;99.90;;;;;;5070196;28;20200;-88
2021/01/25 00:59:07;;;;;;;0.43;0.43;;;2.10;99.90;;;;;;5069433;28;20231;-88
2021/01/25 01:02:10;;;;;;;0.50;0.50;;;0.80;99.90;;;;;;5069515;28;20215;-89
2021/01/25 01:07:45;;;;;;;0.45;0.45;;;0.80;99.90;;;;;;5066229;28;20191;-88
2021/01/25 01:10:36;;;;;;;0.50;0.50;;;0.80;99.90;;;;;;5070008;28;20207;-89
2021/01/25 01:13:14;;;;;;;0.50;0.50;;;0.80;99.90;;;;;;5069276;28;20697;-88
2021/01/25 01:16:00;;;;;;;0.50;0.50;;;3.30;99.90;;;;;;5069518;28;20214;-89
2021/01/25 01:18:38;;;;;;;0.50;0.50;;;0.80;99.90;;;;;;5069667;28;20199;-88
2021/01/25 01:21:22;;;;;;;0.50;0.50;;;0.80;99.90;;;;;;5069045;28;20214;-88
2021/01/25 01:23:52;;;;;;;0.40;0.40;;;0.80;99.90;;;;;;5068966;28;20281;-88
2021/01/25 01:26:22;;;;;;;0.50;0.50;;;0.80;99.90;;;;;;5069237;28;20604;-89
2021/01/25 01:28:57;;;;;;;0.45;0.45;;;;;;;;;;5069588;28;20289;-89
2021/01/25 01:31:35;;;;;;;0.40;0.40;;;0.90;99.90;;;;;;5069508;28;20265;-88
2021/01/25 01:34:12;;;;;;;0.40;0.40;;;-0.60;99.90;;;;;;5069508;28;20249;-88
2021/01/25 01:36:47;;;;;;;0.50;0.50;;;1.10;99.90;;;;;;5069515;28;20203;-88
2021/01/25 01:39:36;;;;;;;0.50;0.50;;;0.80;99.90;;;;;;5070110;28;20218;-89
2021/01/25 01:42:08;;;;;;;0.40;0.40;;;0.70;99.90;;;;;;5082158;28;20231;-88
2021/01/25 01:44:39;;;;;;;0.50;0.50;;;0.70;99.90;;;;;;5089038;28;20280;-88
2021/01/25 01:47:13;;;;;;;0.50;0.50;;;;;;;;;;5088918;28;20211;-88
2021/01/25 01:49:59;;;;;;;0.50;0.50;;;0.50;99.90;;;;;;5088691;28;20213;-88
2021/01/25 01:52:29;;;;;;;0.47;0.47;;;;;;;;;;5074936;28;20214;-88
2021/01/25 01:57:55;;;;;;;0.50;0.50;;;-0.60;99.90;;;;;;5088435;28;20203;-88
2021/01/25 02:00:39;;;;;;;0.50;0.50;;;0.40;99.90;;;;;;5088442;28;20805;-89
2021/01/25 02:03:11;;;;;;;0.50;0.50;;;0.70;99.90;;;;;;5089082;28;20410;-88
2021/01/25 02:05:54;;;;;;;0.50;0.50;;;0.40;99.90;;;;;;5088901;28;20211;-89
2021/01/25 02:08:37;;;;;;;0.50;0.50;;;0.40;99.90;;;;;;5089090;28;20412;-89
2021/01/25 02:11:17;;;;;;;0.50;0.50;;;0.20;99.90;;;;;;5088900;28;20294;-88
2021/01/25 02:14:03;;;;;;;0.50;0.50;;;0.40;99.90;;;;;;5089440;28;20226;-89
2021/01/25 02:16:45;;;;;;;0.50;0.50;;;0.40;99.90;;;;;;5089428;28;20194;-89
2021/01/25 02:19:25;;;;;;;0.50;0.50;;;0.10;99.90;;;;;;5089149;28;20211;-88
2021/01/25 02:22:55;;;;;;;0.40;0.40;;;-0.60;99.90;;;;;;5088556;28;20267;-89
2021/01/25 02:26:14;;;;;;;0.50;0.50;;;0.90;99.90;;;;;;5088648;28;20496;-88
2021/01/25 02:29:11;;;;;;;0.50;0.50;;;-0.10;99.90;;;;;;5087467;28;20207;-89
2021/01/25 02:35:16;;;;;;;;;;;;;;;;;;;;;
2021/01/25 02:37:59;;;;;;;0.50;0.50;;;0.30;99.90;;;;;;5010142;28;20221;-89
2021/01/25 02:40:27;;;;;;;0.50;0.50;;;0.30;99.90;;;;;;5010340;28;20262;-88
2021/01/25 02:42:58;;;;;;;0.40;0.40;;;0.20;99.90;;;;;;5067835;28;20240;-88
2021/01/25 02:45:31;;;;;;;0.50;0.50;;;0.30;99.90;;;;;;5092727;28;20214;-89
2021/01/25 02:51:22;;;;;;;0.40;0.40;;;0.40;99.90;;;;;;5088694;28;20233;-88
2021/01/25 02:54:10;;;;;;;0.40;0.40;;;0.30;99.90;;;;;;5091791;28;20223;-88
2021/01/25 02:56:54;;;;;;;0.50;0.50;;;0.40;99.90;;;;;;5091780;28;20203;-89
2021/01/25 02:59:52;;;;;;;0.50;0.50;;;2.20;99.90;;;;;;5091844;28;20214;-88
2021/01/25 03:02:29;;;;;;;0.50;0.50;;;0.30;99.90;;;;;;5076260;28;20207;-88
2021/01/25 03:05:11;;;;;;;0.50;0.50;;;0.50;99.90;;;;;;5091668;28;20198;-88
2021/01/25 03:07:43;;;;;;;0.50;0.50;;;;;;;;;;5091931;28;20207;-88
2021/01/25 03:10:16;;;;;;;0.40;0.40;;;0.30;99.90;;;;;;5091383;28;20206;-89
2021/01/25 03:13:04;;;;;;;0.40;0.40;;;-1.70;99.90;;;;;;5092529;28;20827;-88
2021/01/25 03:15:53;;;;;;;0.45;0.45;;;0.30;99.90;;;;;;5091746;28;20273;-89
2021/01/25 03:18:31;;;;;;;0.50;0.50;;;0.20;99.90;;;;;;5091325;28;20531;-88
2021/01/25 03:24:40;;;;;;;0.50;0.50;;;0.40;99.90;;;;;;5090825;28;20202;-89
2021/01/25 03:27:32;;;;;;;0.50;0.50;;;0.40;99.90;;;;;;5091201;28;20213;-89
2021/01/25 03:30:19;;;;;;;0.50;0.50;;;0.40;99.90;;;;;;5091583;28;20234;-88
2021/01/25 03:33:01;;;;;;;0.40;0.40;;;0.40;99.90;;;;;;5090964;28;20248;-89
2021/01/25 03:36:17;;;;;;;0.40;0.40;;;0.40;99.90;;;;;;5091284;28;20222;-89
2021/01/25 03:39:29;;;;;;;0.50;0.50;;;0.40;99.90;;;;;;5081377;28;20275;-89
2021/01/25 03:42:42;;;;;;;0.50;0.50;;;0.40;99.90;;;;;;5090274;28;20731;-89
2021/01/25 03:45:20;;;;;;;0.43;0.43;;;-0.40;99.90;;;;;;5090699;28;20199;-89
2021/01/25 03:47:50;;;;;;;0.40;0.40;;;0.50;99.90;;;;;;5091498;28;20230;-88
2021/01/25 03:50:22;;;;;;;0.50;0.50;;;;;;;;;;5090947;28;20210;-88
2021/01/25 03:53:03;;;;;;;0.43;0.43;;;-0.30;99.90;;;;;;5090571;28;20233;-88
2021/01/25 03:55:30;;;;;;;0.40;0.40;;;0.40;99.90;;;;;;5091052;28;20233;-88
2021/01/25 03:58:03;;;;;;;0.40;0.40;;;0.40;99.90;;;;;;5091215;28;20207;-88
2021/01/25 04:00:38;;;;;;;0.40;0.40;;;0.40;99.90;;;;;;5091599;28;20206;-88
2021/01/25 04:03:04;;;;;;;0.50;0.50;;;0.30;99.90;;;;;;5090965;28;20202;-87
2021/01/25 04:05:34;;;;;;;0.50;0.50;;;;;;;;;;5091309;28;20657;-87
2021/01/25 04:08:06;;;;;;;0.50;0.50;;;0.40;99.90;;;;;;5091464;28;20211;-87
2021/01/25 04:10:33;;;;;;;0.50;0.50;;;;;;;;;;5091207;28;20206;-88
2021/01/25 04:12:59;;;;;;;0.40;0.40;;;;;;;;;;5091509;28;20331;-89
2021/01/25 04:15:26;;;;;;;0.45;0.45;;;;;;;;;;5090386;28;20229;-88
2021/01/25 04:17:53;;;;;;;0.50;0.50;;;;;;;;;;5090778;28;20217;-88
2021/01/25 04:20:20;;;;;;;0.50;0.50;;;;;;;;;;5090576;28;20245;-88
2021/01/25 04:22:49;;;;;;;0.50;0.50;;;;;;;;;;5090788;28;20227;-88
2021/01/25 04:25:20;;;;;;;0.45;0.45;;;0.40;99.90;;;;;;5090665;28;20698;-88
2021/01/25 04:27:46;;;;;;;0.47;0.47;;;;;;;;;;5091048;28;20225;-88
2021/01/25 04:30:15;;;;;;;0.50;0.50;;;0.40;99.90;;;;;;5091038;28;20720;-89
2021/01/25 04:32:42;;;;;;;0.40;0.40;;;;;;;;;;5090866;28;20199;-88
2021/01/25 04:35:10;;;;;;;0.40;0.40;;;0.40;99.90;;;;;;5090291;28;20223;-88
2021/01/25 04:37:38;;;;;;;0.45;0.45;;;0.40;99.90;;;;;;5090520;28;20286;-88
2021/01/25 04:40:06;;;;;;;0.50;0.50;;;0.60;99.90;;;;;;5090191;28;20210;-88
2021/01/25 04:42:36;;;;;;;0.50;0.50;;;0.40;99.90;;;;;;5089607;28;20235;-88
2021/01/25 04:45:04;;;;;;;0.50;0.50;;;3.10;99.90;;;;;;5089987;28;20202;-88
2021/01/25 04:47:34;;;;;;;0.50;0.50;;;0.40;99.90;;;;;;5090378;28;20203;-88
2021/01/25 04:50:01;;;;;;;0.40;0.40;;;;;;;;;;5090015;28;20317;-88
2021/01/25 04:52:35;;;;;;;0.47;0.47;;;0.50;99.90;;;;;;5090639;28;20207;-88
2021/01/25 04:55:06;;;;;;;0.43;0.43;;;0.50;99.90;;;;;;5089748;28;20222;-88
2021/01/25 04:57:38;;;;;;;0.40;0.40;;;1.10;99.90;;;;;;5089473;28;20290;-88
2021/01/25 05:00:09;;;;;;;0.50;0.50;;;0.00;99.90;;;;;;5089736;28;20270;-88
2021/01/25 05:02:37;;;;;;;0.40;0.40;;;0.40;99.90;;;;;;5089597;28;20560;-89
2021/01/25 05:05:13;;;;;;;0.50;0.50;;;0.40;99.90;;;;;;5089687;28;20213;-88
2021/01/25 05:07:42;;;;;;;0.50;0.50;;;0.40;99.90;;;;;;5089747;28;20199;-89
2021/01/25 05:10:16;;;;;;;0.50;0.50;;;0.20;99.90;;;;;;5089088;28;20628;-89
2021/01/25 05:12:47;;;;;;;0.50;0.50;;;0.40;99.90;;;;;;5090081;28;20210;-88
2021/01/25 05:15:27;;;;;;;0.50;0.50;;;0.30;99.90;;;;;;5089960;28;20618;-88
2021/01/25 05:17:54;;;;;;;0.40;0.40;;;-0.70;99.90;;;;;;5089251;28;20697;-88
2021/01/25 05:20:26;;;;;;;0.50;0.50;;;0.00;99.90;;;;;;5089745;28;20396;-88
2021/01/25 05:22:53;;;;;;;0.40;0.40;;;;;;;;;;5089752;28;20530;-89
2021/01/25 05:25:28;;;;;;;0.43;0.43;;;0.30;99.90;;;;;;5090466;28;20209;-87
2021/01/25 05:27:56;;;;;;;0.50;0.50;;;1.00;99.90;;;;;;5089987;28;20746;-88
2021/01/25 05:30:23;;;;;;;0.43;0.43;;;2.90;99.90;;;;;;5090327;28;20578;-88
2021/01/25 05:32:51;;;;;;;0.40;0.40;;;0.30;99.90;;;;;;5090365;28;20531;-89
2021/01/25 05:35:20;;;;;;;0.40;0.40;;;0.30;99.90;;;;;;5089526;28;20226;-88
2021/01/25 05:37:52;;;;;;;0.50;0.50;;;1.80;99.90;;;;;;5089696;28;20206;-88
2021/01/25 05:40:21;;;;;;;0.50;0.50;;;-0.50;99.90;;;;;;5089150;28;20217;-88
2021/01/25 05:42:48;;;;;;;0.40;0.40;;;;;;;;;;5089035;28;20231;-88
2021/01/25 05:45:16;;;;;;;0.50;0.50;;;0.30;99.90;;;;;;5089851;28;20207;-88
2021/01/25 05:47:47;;;;;;;0.50;0.50;;;0.30;99.90;;;;;;5090346;28;20203;-89
2021/01/25 05:50:34;;;;;;;0.50;0.50;;;0.70;99.90;;;;;;5090489;28;20317;-89
2021/01/25 05:53:02;;;;;;;0.50;0.50;;;0.20;99.90;;;;;;5090016;28;20206;-88
2021/01/25 05:55:29;;;;;;;0.50;0.50;;;-0.10;99.90;;;;;;5089672;28;20250;-88
2021/01/25 05:57:56;;;;;;;0.50;0.50;;;-0.20;99.90;;;;;;5089213;28;20264;-88
2021/01/25 06:00:25;;;;;;;0.50;0.50;;;0.50;99.90;;;;;;5089190;28;20479;-88
2021/01/25 06:02:53;;;;;;;0.50;0.50;;;0.20;99.90;;;;;;5089130;28;20210;-88
2021/01/25 06:05:35;;;;;;;0.50;0.50;;;2.20;99.90;;;;;;5088911;28;20730;-88
2021/01/25 06:08:14;;;;;;;0.50;0.50;;;0.70;99.90;;;;;;5089288;28;20202;-87
2021/01/25 06:10:49;;;;;;;0.50;0.50;;;0.60;99.90;;;;;;5093132;28;20208;-88
2021/01/25 06:13:20;;;;;;;0.40;0.40;;;-0.90;99.90;;;;;;5093453;28;20289;-88
2021/01/25 06:15:56;;;;;;;0.40;0.40;;;-0.30;99.90;;;;;;5093335;28;20239;-88
2021/01/25 06:18:25;;;;;;;0.45;0.45;;;-0.70;99.90;;;;;;5092894;28;20282;-89
2021/01/25 06:21:00;;;;;;;0.50;0.50;;;1.60;99.90;;;;;;5093124;28;20568;-89
2021/01/25 06:23:28;;;;;;;0.50;0.50;;;0.10;99.90;;;;;;5092745;28;20571;-88
2021/01/25 06:25:56;;;;;;;0.50;0.50;;;0.20;99.90;;;;;;5092576;28;20731;-89
2021/01/25 06:28:45;;;;;;;0.50;0.50;;;1.70;99.90;;;;;;5092594;28;20206;-88
2021/01/25 06:31:29;;;;;;;0.50;0.50;;;0.00;99.90;;;;;;5092370;28;20294;-89
2021/01/25 06:34:08;;;;;;;0.50;0.50;;;1.30;99.90;;;;;;5092378;28;20203;-89
2021/01/25 06:36:36;;;;;;;0.50;0.50;;;-0.60;99.90;;;;;;5092707;28;20230;-89
2021/01/25 06:39:05;;;;;;;0.50;0.50;;;-0.90;99.90;;;;;;5092738;28;20203;-87
2021/01/25 06:41:36;;;;;;;0.40;0.40;;;0.40;99.90;;;;;;5083831;28;20282;-88
2021/01/25 06:44:04;;;;;;;0.45;0.45;;;0.90;99.90;;;;;;5072467;28;20238;-88
2021/01/25 06:46:52;;;;;;;;;;;;;;;;;;;;;
2021/01/25 06:49:26;;;;;;;0.50;0.50;;;0.40;99.90;;;;;;5072003;28;20215;-88
2021/01/25 06:51:55;;;;;;;0.50;0.50;;;1.40;99.90;;;;;;5072039;28;20732;-89
2021/01/25 06:54:32;;;;;;;0.50;0.50;;;0.30;99.90;;;;;;5071829;28;20220;-89
2021/01/25 06:57:00;;;;;;;0.50;0.50;;;0.00;99.90;;;;;;5072453;28;20199;-88
2021/01/25 06:59:31;;;;;;;0.50;0.50;;;-1.90;99.90;;;;;;5071930;28;20199;-89
2021/01/25 07:02:23;;;;;;;0.50;0.50;;;0.80;99.90;;;;;;5072596;28;20206;-89
2021/01/25 07:05:09;;;;;;;0.50;0.50;;;-0.10;99.90;;;;;;5072165;28;20204;-88
2021/01/25 07:07:39;;;;;;;0.50;0.50;;;2.00;99.90;;;;;;5071401;28;20203;-89
2021/01/25 07:10:17;;;;;;;0.50;0.50;;;-0.10;99.90;;;;;;5072250;28;20238;-88
2021/01/25 07:12:44;;;;;;;0.50;0.50;;;0.10;99.90;;;;;;5073614;28;20210;-89
2021/01/25 07:15:14;;;;;;;0.50;0.50;;;0.40;99.90;;;;;;5076361;28;20601;-87
2021/01/25 07:17:42;;;;;;;0.40;0.40;;;0.00;99.90;;;;;;5076846;28;20200;-88
2021/01/25 07:20:10;;;;;;;0.45;0.45;;;-0.30;99.90;;;;;;5074595;28;20211;-88
2021/01/25 07:22:37;;;;;;;0.40;0.40;;;0.00;99.90;;;;;;5074000;28;20195;-87
2021/01/25 07:25:05;;;;;;;0.50;0.50;;;-0.20;99.90;;;;;;5073597;28;20203;-87
2021/01/25 07:27:35;;;;;;;0.40;0.40;;;0.00;99.90;;;;;;5074680;28;20656;-87
2021/01/25 07:30:03;;;;;;;0.50;0.50;;;-0.10;99.90;;;;;;5074780;28;20214;-87
2021/01/25 07:32:29;;;;;;;0.50;0.50;;;-0.40;99.90;;;;;;5066127;28;20258;-88
2021/01/25 07:34:57;;;;;;;0.50;0.50;;;-0.50;99.90;;;;;;5067961;28;20215;-88
2021/01/25 07:37:23;;;;;;;0.45;0.45;;;2.00;99.90;;;;;;5075776;28;20203;-87
2021/01/25 07:39:50;;;;;;;0.50;0.50;;;-0.20;99.90;;;;;;5076580;28;20204;-88
2021/01/25 07:42:16;;;;;;;0.50;0.50;;;-0.20;99.90;;;;;;5092006;28;20239;-87
2021/01/25 07:44:44;;;;;;;0.40;0.40;;;-0.90;99.90;;;;;;5096794;28;20210;-87
2021/01/25 07:47:11;;;;;;;0.50;0.50;;;;;;;;;;5095661;28;20202;-87
2021/01/25 07:49:37;;;;;;;0.50;0.50;;;-0.20;99.90;;;;;;5095542;28;20203;-87
2021/01/25 07:52:15;;;;;;;0.40;0.40;;;1.10;99.90;;;;;;5095282;28;20215;-86
2021/01/25 07:54:42;;;;;;;0.50;0.50;;;;;;;;;;5095474;28;20222;-87
2021/01/25 07:57:14;;;;;;;0.50;0.50;;;-0.30;99.90;;;;;;5095398;28;20207;-86
2021/01/25 07:59:40;;;;;;;0.45;0.45;;;-0.90;99.90;;;;;;5095123;28;20657;-87
2021/01/25 08:02:12;;;;;;;0.50;0.50;;;-0.40;99.90;;;;;;5087602;28;20265;-88
2021/01/25 08:04:40;;;;;;;0.50;0.50;;;-0.30;99.90;;;;;;5070683;28;20253;-88
2021/01/25 08:07:08;;;;;;;0.50;0.50;;;-1.20;99.90;;;;;;5064847;28;20200;-87
2021/01/25 08:09:38;;;;;;;0.40;0.40;;;-0.70;99.90;;;;;;5072318;28;20211;-88
2021/01/25 08:12:08;;;;;;;0.40;0.40;;;0.00;99.90;;;;;;5074251;28;20235;-88
2021/01/25 08:14:41;;;;;;;0.40;0.40;;;-0.20;99.90;;;;;;5037070;28;20225;-87
2021/01/25 08:17:30;;;;;;;0.50;0.50;;;-0.20;99.90;;;;;;5068116;28;20291;-89
2021/01/25 08:20:08;;;;;;;0.50;0.50;;;-0.60;99.90;;;;;;5074362;28;20208;-88
2021/01/25 08:22:51;;;;;;;0.43;0.43;;;1.20;99.90;;;;;;5071275;28;20203;-88
2021/01/25 08:25:27;;;;;;;0.50;0.50;;;-0.20;99.90;;;;;;5074349;28;20223;-89
2021/01/25 08:27:58;;;;;;;0.40;0.40;;;-0.30;99.90;;;;;;5055593;28;20207;-88
2021/01/25 08:30:33;;;;;;;0.43;0.43;;;1.70;99.90;;;;;;5072527;28;20214;-88
2021/01/25 08:33:02;;;;;;;0.43;0.43;;;2.20;99.90;;;;;;5068862;28;20257;-88
2021/01/25 08:35:36;;;;;;;0.40;0.40;;;-0.90;99.90;;;;;;5066366;28;20230;-89
2021/01/25 08:38:17;;;;;;;0.50;0.50;;;-0.10;99.90;;;;;;5071396;28;20558;-88
2021/01/25 08:40:44;;;;;;;0.50;0.50;;;-0.10;99.90;;;;;;5069539;28;20260;-89
2021/01/25 08:43:22;;;;;;;0.43;0.43;;;0.40;99.90;;;;;;5070021;28;20665;-86
2021/01/25 08:45:50;;;;;;;0.50;0.50;;;0.00;99.90;;;;;;5072601;28;20203;-88
2021/01/25 08:48:26;;;;;;;0.40;0.40;;;-0.10;99.90;;;;;;5071701;28;20211;-87
2021/01/25 08:50:55;;;;;;;0.50;0.50;;;-0.40;99.90;;;;;;5071101;28;20211;-87
2021/01/25 08:53:30;;;;;;;0.40;0.40;;;1.20;99.90;;;;;;5071682;28;20687;-87
2021/01/25 08:55:57;;;;;;;0.45;0.45;;;-0.10;99.90;;;;;;5071845;28;20229;-87
2021/01/25 08:58:29;;;;;;;0.40;0.40;;;-0.60;99.90;;;;;;5071537;28;20312;-87
2021/01/25 09:00:57;;;;;;;0.50;0.50;;;-0.60;99.90;;;;;;5071558;28;20204;-87
2021/01/25 09:03:23;;;;;;;0.50;0.50;;;-0.20;99.90;;;;;;5068108;28;20200;-87
2021/01/25 09:05:52;;;;;;;0.40;0.40;;;-0.60;99.90;;;;;;5065748;28;20222;-87
2021/01/25 09:08:19;;;;;;;0.40;0.40;;;-0.80;99.90;;;;;;5074004;28;20254;-86
2021/01/25 09:10:45;;;;;;;0.40;0.40;;;-0.30;99.90;;;;;;5071749;28;20204;-87
2021/01/25 09:13:12;;;;;;;0.50;0.50;;;-0.10;99.90;;;;;;5072382;28;20659;-87
2021/01/25 09:15:38;;;;;;;0.40;0.40;;;-0.40;99.90;;;;;;5073374;28;20314;-86
2021/01/25 09:18:07;;;;;;;0.40;0.40;;;-0.80;99.90;;;;;;5073322;28;20208;-87
2021/01/25 09:20:33;;;;;;;0.43;0.43;;;0.20;99.90;;;;;;5073613;28;20294;-87
2021/01/25 09:23:00;;;;;;;0.50;0.50;;;0.00;99.90;;;;;;5073347;28;20207;-87
2021/01/25 09:25:27;;;;;;;0.50;0.50;;;0.70;99.90;;;;;;5073280;28;20684;-87
2021/01/25 09:27:53;;;;;;;0.50;0.50;;;-0.20;99.90;;;;;;5064951;28;20203;-86
2021/01/25 09:30:20;;;;;;;0.40;0.40;;;-0.10;99.90;;;;;;5071379;28;20204;-86
2021/01/25 09:32:46;;;;;;;0.43;0.43;;;0.30;99.90;;;;;;5072881;28;20203;-87
2021/01/25 09:35:16;;;;;;;0.40;0.40;;;-0.10;99.90;;;;;;5072632;28;20228;-88
2021/01/25 09:37:42;;;;;;;0.40;0.40;;;0.30;99.90;;;;;;5072173;28;20246;-85
2021/01/25 09:40:10;;;;;;;0.40;0.40;;;-0.10;99.90;;;;;;5072415;28;20199;-84
2021/01/25 09:42:36;;;;;;;0.40;0.40;;;0.00;99.90;;;;;;5061212;28;20720;-84
2021/01/25 09:45:04;;;;;;;0.50;0.50;;;0.00;99.90;;;;;;5058920;28;20211;-85
2021/01/25 09:47:31;;;;;;;0.40;0.40;;;-1.70;99.90;;;;;;5064679;28;20198;-85
2021/01/25 09:49:58;;;;;;;0.40;0.40;;;0.00;99.90;;;;;;5071676;28;20693;-84
2021/01/25 09:52:25;;;;;;;0.40;0.40;;;-0.20;99.90;;;;;;5063623;28;20315;-84
2021/01/25 09:54:51;;;;;;;0.40;0.40;;;0.00;99.90;;;;;;5068675;28;20231;-84
2021/01/25 09:57:17;;;;;;;0.50;0.50;;;-0.50;99.90;;;;;;5056920;28;20286;-84
2021/01/25 09:59:43;;;;;;;0.40;0.40;;;0.10;99.90;;;;;;5071895;28;20203;-84
2021/01/25 10:02:09;;;;;;;0.40;0.40;;;0.00;99.90;;;;;;5071523;28;20226;-84
2021/01/25 10:04:36;;;;;;;0.40;0.40;;;-0.20;99.90;;;;;;5070620;28;20204;-85
2021/01/25 10:07:02;;;;;;;0.50;0.50;;;-0.30;99.90;;;;;;5072131;28;20290;-84
2021/01/25 10:09:30;;;;;;;0.40;0.40;;;0.00;99.90;;;;;;5072447;28;20601;-84
2021/01/25 10:11:56;;;;;;;0.40;0.40;;;0.20;99.90;;;;;;5065352;28;20216;-83
2021/01/25 10:14:22;;;;;;;0.40;0.40;;;0.10;99.90;;;;;;5071537;28;20231;-84
2021/01/25 10:16:49;;;;;;;0.40;0.40;;;0.00;99.90;;;;;;5071261;28;20195;-85
2021/01/25 10:19:15;;;;;;;0.43;0.43;;;0.40;99.90;;;;;;5070873;28;20227;-83
2021/01/25 10:21:41;;;;;;;0.40;0.40;;;-0.30;99.90;;;;;;5071341;28;20207;-83
2021/01/25 10:24:08;;;;;;;0.50;0.50;;;0.20;99.90;;;;;;5071893;28;20218;-84
2021/01/25 10:26:35;;;;;;;0.50;0.50;;;0.00;99.90;;;;;;5065616;28;20208;-84
2021/01/25 10:29:01;;;;;;;0.50;0.50;;;0.10;99.90;;;;;;5071528;28;20227;-83
2021/01/25 10:31:27;;;;;;;0.50;0.50;;;0.10;99.90;;;;;;5072102;28;20202;-83
2021/01/25 10:33:53;;;;;;;0.40;0.40;;;0.30;99.90;;;;;;5071429;28;20211;-83
2021/01/25 10:36:20;;;;;;;0.40;0.40;;;0.00;99.90;;;;;;5071334;28;20564;-83
2021/01/25 10:38:47;;;;;;;0.40;0.40;;;0.20;99.90;;;;;;5072040;28;20246;-83
2021/01/25 10:41:14;;;;;;;0.40;0.40;;;0.20;99.90;;;;;;5070961;28;20226;-83
2021/01/25 10:43:41;;;;;;;0.40;0.40;;;0.20;99.90;;;;;;5071323;28;20199;-83
2021/01/25 10:46:07;;;;;;;0.40;0.40;;;0.30;99.90;;;;;;5071406;28;20203;-83
2021/01/25 10:48:33;;;;;;;0.50;0.50;;;-1.60;99.90;;;;;;5071742;28;20203;-83
2021/01/25 10:51:00;;;;;;;0.40;0.40;;;0.20;99.90;;;;;;5071692;28;20200;-84
2021/01/25 10:53:27;;;;;;;0.40;0.40;;;0.30;99.90;;;;;;5071853;28;20202;-84
2021/01/25 10:55:53;;;;;;;0.40;0.40;;;0.40;99.90;;;;;;5071059;28;20260;-84
2021/01/25 10:58:19;;;;;;;0.40;0.40;;;0.50;99.90;;;;;;5075201;28;20200;-85
2021/01/25 11:00:46;;;;;;;0.40;0.40;;;0.90;99.90;;;;;;5075318;28;20212;-84
2021/01/25 11:03:12;;;;;;;0.40;0.40;;;-0.80;99.90;;;;;;5074402;28;20245;-82
2021/01/25 11:05:38;;;;;;;0.50;0.50;;;0.60;99.90;;;;;;5074020;28;20200;-83
2021/01/25 11:08:05;;;;;;;0.40;0.40;;;0.50;99.90;;;;;;5073826;28;20195;-83
2021/01/25 11:10:31;;;;;;;0.40;0.40;;;0.70;99.90;;;;;;5073516;28;20204;-83
2021/01/25 11:12:57;;;;;;;0.40;0.40;;;0.70;99.90;;;;;;5066559;28;20679;-83
2021/01/25 11:15:23;;;;;;;0.50;0.50;;;0.40;99.90;;;;;;5067089;28;20296;-83
2021/01/25 11:17:51;;;;;;;0.40;0.40;;;0.80;99.90;;;;;;5075345;28;20666;-83
2021/01/25 11:20:18;;;;;;;0.50;0.50;;;0.70;99.90;;;;;;5075519;28;20210;-83
2021/01/25 11:22:44;;;;;;;0.50;0.50;;;0.70;99.90;;;;;;5075691;28;20230;-83
2021/01/25 11:25:12;;;;;;;0.50;0.50;;;0.70;99.90;;;;;;5074794;28;20316;-83
2021/01/25 11:27:38;;;;;;;0.50;0.50;;;0.70;99.90;;;;;;5073678;28;20200;-84
2021/01/25 11:30:06;;;;;;;0.50;0.50;;;0.70;99.90;;;;;;5073275;28;20592;-83
2021/01/25 11:32:33;;;;;;;0.50;0.50;;;0.70;99.90;;;;;;5073330;28;20222;-84
2021/01/25 11:35:00;;;;;;;0.50;0.50;;;0.70;99.90;;;;;;5073174;28;20223;-84
2021/01/25 11:37:26;;;;;;;0.50;0.50;;;0.80;99.90;;;;;;5075213;28;20200;-84
2021/01/25 11:39:52;;;;;;;0.50;0.50;;;0.30;99.90;;;;;;5073795;28;20204;-84
2021/01/25 11:42:18;;;;;;;0.50;0.50;;;0.60;99.90;;;;;;5073276;28;20249;-84
2021/01/25 11:44:45;;;;;;;0.50;0.50;;;0.20;99.90;;;;;;5074949;28;20199;-84
2021/01/25 11:47:11;;;;;;;0.50;0.50;;;0.90;99.90;;;;;;5074546;28;20192;-84
2021/01/25 11:49:37;;;;;;;0.50;0.50;;;0.70;99.90;;;;;;5074886;28;20241;-84
2021/01/25 11:52:05;;;;;;;0.50;0.50;;;0.70;99.90;;;;;;5074651;28;20207;-84
2021/01/25 11:54:33;;;;;;;0.50;0.50;;;0.90;99.90;;;;;;5074821;28;20228;-84
2021/01/25 11:56:59;;;;;;;0.50;0.50;;;0.60;99.90;;;;;;5074651;28;20200;-84
2021/01/25 11:59:25;;;;;;;0.50;0.50;;;0.80;99.90;;;;;;5074047;28;20217;-84
2021/01/25 12:01:51;;;;;;;0.50;0.50;;;0.40;99.90;;;;;;5074777;28;20199;-84
2021/01/25 12:04:18;;;;;;;0.50;0.50;;;1.00;99.90;;;;;;5074531;28;20203;-84
2021/01/25 12:06:44;;;;;;;0.50;0.50;;;1.00;99.90;;;;;;5073268;28;20674;-84
2021/01/25 12:09:11;;;;;;;0.50;0.50;;;0.90;99.90;;;;;;5073685;28;20192;-84
2021/01/25 12:11:37;;;;;;;0.50;0.50;;;1.00;99.90;;;;;;5074107;28;20875;-84
2021/01/25 12:14:03;;;;;;;0.50;0.50;;;1.00;99.90;;;;;;5072263;28;20208;-84
2021/01/25 12:16:30;;;;;;;0.50;0.50;;;1.00;99.90;;;;;;5059348;28;20220;-84
2021/01/25 12:18:56;;;;;;;0.50;0.50;;;1.50;99.90;;;;;;5072672;28;20203;-84
2021/01/25 12:21:22;;;;;;;0.50;0.50;;;1.10;99.90;;;;;;5073685;28;20200;-84
2021/01/25 12:23:48;;;;;;;0.45;0.45;;;1.50;99.90;;;;;;5074468;28;20211;-84
2021/01/25 12:26:15;;;;;;;0.50;0.50;;;1.10;99.90;;;;;;5074162;28;20261;-84
2021/01/25 12:28:41;;;;;;;0.50;0.50;;;1.10;99.90;;;;;;5073883;28;20261;-84
2021/01/25 12:31:07;;;;;;;0.50;0.50;;;1.30;99.90;;;;;;5074267;28;20199;-84
2021/01/25 12:33:34;;;;;;;0.50;0.50;;;1.20;99.90;;;;;;5067962;28;20207;-83
2021/01/25 12:36:00;;;;;;;0.50;0.50;;;1.10;99.90;;;;;;5074098;28;20223;-84
2021/01/25 12:38:27;;;;;;;0.50;0.50;;;1.30;99.90;;;;;;5073217;28;20208;-84
2021/01/25 12:40:53;;;;;;;0.50;0.50;;;0.70;99.90;;;;;;5065618;28;20235;-84
2021/01/25 12:43:21;;;;;;;0.50;0.50;;;1.20;99.90;;;;;;5073456;28;20203;-84
2021/01/25 12:45:47;;;;;;;0.50;0.50;;;1.30;99.90;;;;;;5073622;28;20204;-85
2021/01/25 12:48:14;;;;;;;0.50;0.50;;;1.10;99.90;;;;;;5073416;28;20204;-84
2021/01/25 12:50:40;;;;;;;0.50;0.50;;;1.10;99.90;;;;;;5073583;28;20214;-84
2021/01/25 12:53:06;;;;;;;0.50;0.50;;;1.20;99.90;;;;;;5073782;28;20199;-84
2021/01/25 12:55:33;;;;;;;0.50;0.50;;;1.30;99.90;;;;;;5073658;28;20242;-84
2021/01/25 12:57:59;;;;;;;0.50;0.50;;;1.30;99.90;;;;;;5073543;28;20246;-84
2021/01/25 13:00:31;;;;;;;0.50;0.50;;;1.10;99.90;;;;;;5073346;28;20207;-84
2021/01/25 13:02:57;;;;;;;0.50;0.50;;;1.40;99.90;;;;;;5073521;28;20670;-84
2021/01/25 13:05:23;;;;;;;0.40;0.40;;;2.90;99.90;;;;;;5072886;28;20203;-84
2021/01/25 13:07:49;;;;;;;0.50;0.50;;;1.20;99.90;;;;;;5073655;28;20214;-84
2021/01/25 13:10:18;;;;;;;0.50;0.50;;;1.20;99.90;;;;;;5072097;28;20537;-84
2021/01/25 13:12:44;;;;;;;0.50;0.50;;;1.20;99.90;;;;;;5067549;28;20675;-84
2021/01/25 13:15:14;;;;;;;0.50;0.50;;;1.20;99.90;;;;;;5065069;28;20235;-84
2021/01/25 13:17:41;;;;;;;0.50;0.50;;;1.20;99.90;;;;;;5061792;28;20204;-84
2021/01/25 13:20:09;;;;;;;0.50;0.50;;;1.30;99.90;;;;;;5072597;28;20368;-84
2021/01/25 13:22:35;;;;;;;0.50;0.50;;;1.30;99.90;;;;;;5073338;28;20570;-84
2021/01/25 13:25:01;;;;;;;0.50;0.50;;;0.90;99.90;;;;;;5072199;28;20654;-85
2021/01/25 13:27:29;;;;;;;0.50;0.50;;;0.90;99.90;;;;;;5071491;28;20614;-85
2021/01/25 13:29:56;;;;;;;0.50;0.50;;;1.20;99.90;;;;;;5073005;28;20575;-85
2021/01/25 13:32:22;;;;;;;0.50;0.50;;;1.30;99.90;;;;;;5070647;28;20219;-85
2021/01/25 13:34:50;;;;;;;0.50;0.50;;;2.00;99.90;;;;;;5067327;28;20276;-84
2021/01/25 13:37:16;;;;;;;0.50;0.50;;;2.30;99.90;;;;;;5070875;28;20658;-84
2021/01/25 13:39:48;;;;;;;0.50;0.50;;;1.60;99.90;;;;;;5072059;28;20204;-85
2021/01/25 13:42:15;;;;;;;0.50;0.50;;;1.50;99.90;;;;;;5072892;28;20232;-84
2021/01/25 13:44:51;;;;;;;0.50;0.50;;;2.90;99.90;;;;;;5071962;28;20234;-85
2021/01/25 13:47:18;;;;;;;0.50;0.50;;;1.70;99.90;;;;;;5073027;28;20214;-84
2021/01/25 13:49:44;;;;;;;0.50;0.50;;;1.70;99.90;;;;;;5071638;28;20257;-84
2021/01/25 13:52:11;;;;;;;0.50;0.50;;;1.60;99.90;;;;;;5070492;28;20211;-84
2021/01/25 13:54:38;;;;;;;0.50;0.50;;;1.20;99.90;;;;;;5072449;28;20203;-84
2021/01/25 13:57:05;;;;;;;0.50;0.50;;;1.60;99.90;;;;;;5069822;28;20703;-84
2021/01/25 13:59:33;;;;;;;0.50;0.50;;;1.70;99.90;;;;;;5065004;28;20207;-84